createdAt,value
2019-03-21T00:00:26.272Z,54.59
2019-03-21T00:05:35.564Z,53.65
2019-03-21T00:11:17.755Z,54.78
2019-03-21T00:16:37.067Z,54.29
2019-03-21T00:21:44.328Z,54.23
2019-03-21T00:26:56.172Z,53.75
2019-03-21T00:32:05.420Z,54.04
2019-03-21T00:37:13.731Z,53.66
2019-03-21T00:42:20.556Z,54.12
2019-03-21T00:47:27.524Z,53.26
2019-03-21T00:52:36.811Z,52.89
2019-03-21T00:57:44.576Z,49.90
2019-03-21T01:02:55.937Z,52.56
2019-03-21T01:08:09.323Z,52.52
2019-03-21T01:13:17.654Z,52.21
2019-03-21T01:18:26.991Z,52.48
2019-03-21T01:23:40.540Z,52.49
2019-03-21T01:29:06.268Z,51.87
2019-03-21T01:34:14.707Z,51.16
2019-03-21T01:39:23.324Z,49.09
2019-03-21T01:44:41.070Z,49.44
2019-03-21T01:49:44.103Z,49.17
2019-03-21T01:54:53.255Z,49.78
2019-03-21T02:00:00.862Z,49.07
2019-03-21T02:05:14.079Z,49.72
2019-03-21T02:10:23.117Z,50.01
2019-03-21T02:15:33.173Z,49.22
2019-03-21T02:20:43.212Z,48.47
2019-03-21T02:25:52.368Z,47.77
2019-03-21T02:31:02.229Z,48.87
2019-03-21T02:36:10.341Z,49.08
2019-03-21T02:41:18.415Z,50.00
2019-03-21T02:46:27.397Z,50.33
2019-03-21T02:51:36.713Z,50.36
2019-03-21T02:56:51.819Z,49.84
2019-03-21T03:02:01.814Z,49.22
2019-03-21T03:07:19.857Z,49.06
2019-03-21T03:12:36.553Z,49.52
2019-03-21T03:17:47.863Z,49.82
2019-03-21T03:23:04.403Z,48.24
2019-03-21T03:28:20.702Z,50.14
2019-03-21T03:33:29.157Z,50.64
2019-03-21T03:38:36.387Z,50.93
2019-03-21T03:43:47.375Z,51.38
2019-03-21T03:48:56.225Z,51.75
2019-03-21T03:54:06.153Z,50.01
2019-03-21T03:59:14.429Z,50.49
2019-03-21T04:04:33.358Z,51.49
2019-03-21T04:09:42.345Z,51.10
2019-03-21T04:14:53.115Z,51.46
2019-03-21T04:20:01.977Z,52.54
2019-03-21T04:25:12.586Z,53.02
2019-03-21T04:30:20.570Z,54.92
2019-03-21T04:35:30.198Z,53.96
2019-03-21T04:40:44.108Z,53.17
2019-03-21T04:46:02.929Z,54.21
2019-03-21T04:51:06.357Z,54.29
2019-03-21T04:56:13.968Z,53.16
2019-03-21T05:01:22.910Z,53.80
2019-03-21T05:06:38.467Z,54.84
2019-03-21T05:11:47.209Z,55.36
2019-03-21T05:16:56.263Z,54.55
2019-03-21T05:22:05.831Z,55.29
2019-03-21T05:27:15.313Z,55.70
2019-03-21T05:32:22.745Z,55.81
2019-03-21T05:37:34.565Z,56.10
2019-03-21T05:42:45.089Z,55.07
2019-03-21T05:47:51.900Z,58.24
2019-03-21T05:53:06.762Z,57.06
2019-03-21T05:59:12.304Z,57.34
2019-03-21T06:04:39.957Z,54.81
2019-03-21T06:09:48.687Z,55.25
2019-03-21T06:15:04.299Z,52.53
2019-03-21T06:20:43.077Z,46.54
2019-03-21T06:26:32.521Z,48.54
2019-03-21T06:31:39.459Z,48.46
2019-03-21T06:36:50.051Z,48.65
2019-03-21T06:41:59.849Z,45.21
2019-03-21T06:47:07.079Z,45.67
2019-03-21T06:52:14.211Z,42.65
2019-03-21T06:57:21.687Z,41.60
2019-03-21T07:02:31.152Z,40.93
2019-03-21T07:07:38.339Z,39.89
2019-03-21T07:12:45.937Z,39.57
2019-03-21T07:17:53.241Z,38.94
2019-03-21T07:23:00.104Z,38.70
2019-03-21T07:28:13.321Z,38.54
2019-03-21T07:33:22.829Z,37.94
2019-03-21T07:38:33.911Z,38.40
2019-03-21T07:43:42.299Z,38.15
2019-03-21T07:48:50.488Z,37.11
2019-03-21T07:54:00.476Z,36.91
2019-03-21T07:59:10.569Z,37.02
2019-03-21T08:04:17.681Z,37.20
2019-03-21T08:09:28.359Z,37.08
2019-03-21T08:14:39.195Z,37.43
2019-03-21T08:19:48.551Z,36.65
2019-03-21T08:24:58.694Z,35.63
2019-03-21T08:30:07.902Z,35.46
2019-03-21T08:35:18.988Z,35.63
2019-03-21T08:40:27.969Z,37.52
2019-03-21T08:45:35.233Z,38.19
2019-03-21T08:50:44.167Z,37.85
2019-03-21T08:55:54.686Z,39.53
2019-03-21T09:01:01.690Z,39.27
2019-03-21T09:06:11.122Z,37.95
2019-03-21T09:11:18.418Z,39.08
2019-03-21T09:16:26.460Z,38.57
2019-03-21T09:21:38.598Z,38.71
2019-03-21T09:26:45.482Z,37.54
2019-03-21T09:31:52.243Z,37.64
2019-03-21T09:37:03.989Z,38.17
2019-03-21T09:42:10.241Z,39.40
2019-03-21T09:52:24.975Z,38.94
2019-03-21T09:57:31.971Z,41.60
2019-03-21T10:02:39.222Z,40.12
2019-03-21T10:07:46.287Z,40.87
2019-03-21T10:12:55.433Z,41.63
2019-03-21T10:18:01.810Z,41.42
2019-03-21T10:23:09.870Z,41.37
2019-03-21T10:28:16.734Z,42.11
2019-03-21T10:33:28.384Z,41.77
2019-03-21T10:38:36.023Z,41.68
2019-03-21T10:43:47.579Z,40.45
2019-03-21T10:48:54.640Z,41.15
2019-03-21T10:54:01.520Z,40.64
2019-03-21T10:59:08.885Z,39.69
2019-03-21T11:04:17.141Z,40.98
2019-03-21T11:09:27.313Z,41.80
2019-03-21T11:14:36.027Z,41.39
2019-03-21T11:19:44.357Z,42.09
2019-03-21T11:24:53.769Z,41.81
2019-03-21T11:30:00.833Z,39.91
2019-03-21T11:35:07.783Z,40.35
2019-03-21T11:40:20.581Z,40.73
2019-03-21T11:45:29.797Z,41.68
2019-03-21T11:50:39.476Z,40.17
2019-03-21T11:55:49.817Z,41.20
2019-03-21T12:00:57.051Z,41.46
2019-03-21T12:06:06.844Z,40.67
2019-03-21T12:11:16.452Z,39.57
2019-03-21T12:16:24.876Z,40.54
2019-03-21T12:21:35.592Z,39.85
2019-03-21T12:26:42.303Z,39.68
2019-03-21T12:31:49.327Z,39.45
2019-03-21T12:36:56.063Z,39.74
2019-03-21T12:42:12.427Z,38.47
2019-03-21T12:47:30.853Z,40.02
2019-03-21T12:52:41.316Z,39.44
2019-03-21T12:57:47.432Z,39.56
2019-03-21T13:02:54.804Z,40.02
2019-03-21T13:08:06.589Z,40.13
2019-03-21T13:13:15.208Z,39.06
2019-03-21T13:18:22.112Z,38.71
2019-03-21T13:23:32.492Z,38.59
2019-03-21T13:28:45.151Z,38.27
2019-03-21T13:33:51.923Z,40.88
2019-03-21T13:38:58.931Z,39.31
2019-03-21T13:44:09.175Z,38.94
2019-03-21T13:49:20.178Z,39.38
2019-03-21T13:54:27.582Z,40.94
2019-03-21T13:59:34.800Z,41.13
2019-03-21T14:04:42.740Z,40.18
2019-03-21T14:09:51.593Z,41.85
2019-03-21T14:15:01.525Z,41.68
2019-03-21T14:20:11.840Z,39.96
2019-03-21T14:25:19.564Z,41.49
2019-03-21T14:30:27.124Z,41.41
2019-03-21T14:35:34.474Z,40.70
2019-03-21T14:40:42.654Z,42.46
2019-03-21T14:45:53.425Z,42.00
2019-03-21T14:51:05.529Z,41.02
2019-03-21T14:56:16.539Z,40.53
2019-03-21T15:01:23.953Z,39.52
2019-03-21T15:06:31.112Z,39.92
2019-03-21T15:11:42.535Z,42.26
2019-03-21T15:16:52.452Z,42.29
2019-03-21T15:22:03.704Z,40.74
2019-03-21T15:27:14.272Z,40.53
2019-03-21T15:32:25.181Z,40.88
2019-03-21T15:37:33.378Z,42.22
2019-03-21T15:42:43.327Z,40.97
2019-03-21T15:47:50.590Z,42.77
2019-03-21T15:52:58.661Z,43.73
2019-03-21T15:58:08.284Z,43.56
2019-03-21T16:03:21.178Z,43.80
2019-03-21T16:08:29.299Z,44.02
2019-03-21T16:13:47.563Z,44.58
2019-03-21T16:18:58.042Z,44.88
2019-03-21T16:24:05.869Z,45.20
2019-03-21T16:29:14.319Z,45.12
2019-03-21T16:34:21.592Z,45.01
2019-03-21T16:39:32.457Z,45.27
2019-03-21T16:44:39.669Z,46.13
2019-03-21T16:49:49.736Z,45.25
2019-03-21T16:55:00.945Z,45.50
2019-03-21T17:00:13.600Z,46.72
2019-03-21T17:05:22.328Z,46.60
2019-03-21T17:10:30.856Z,47.65
2019-03-21T17:15:42.778Z,47.23
2019-03-21T17:20:51.805Z,47.85
2019-03-21T17:26:00.348Z,48.25
2019-03-21T17:31:10.669Z,49.03
2019-03-21T17:36:22.623Z,49.22
2019-03-21T17:41:30.684Z,49.07
2019-03-21T17:46:38.685Z,49.43
2019-03-21T17:51:48.517Z,50.67
2019-03-21T17:56:56.836Z,50.30
2019-03-21T18:02:04.808Z,50.45
2019-03-21T18:07:16.679Z,51.51
2019-03-21T18:12:36.601Z,51.82
2019-03-21T18:17:47.353Z,52.11
2019-03-21T18:22:58.878Z,52.13
2019-03-21T18:28:09.097Z,52.79
2019-03-21T18:33:22.318Z,52.83
2019-03-21T18:38:35.923Z,53.57
2019-03-21T18:43:56.557Z,53.46
2019-03-21T18:49:08.907Z,53.66
2019-03-21T18:54:20.877Z,54.85
2019-03-21T18:59:32.138Z,54.93
2019-03-21T19:04:41.776Z,54.50
2019-03-21T19:09:51.237Z,54.85
2019-03-21T19:15:01.002Z,56.22
2019-03-21T19:20:13.127Z,55.04
2019-03-21T19:25:23.220Z,56.08
2019-03-21T19:30:31.073Z,56.01
2019-03-21T19:35:40.152Z,55.83
2019-03-21T19:40:52.364Z,56.03
2019-03-21T19:46:01.629Z,56.39
2019-03-21T19:51:11.293Z,56.30
2019-03-21T19:56:24.076Z,56.33
2019-03-21T20:01:33.667Z,56.42
2019-03-21T20:06:44.295Z,57.74
2019-03-21T20:11:53.916Z,57.54
2019-03-21T20:17:04.110Z,58.24
2019-03-21T20:22:13.650Z,58.45
2019-03-21T20:27:25.288Z,58.10
2019-03-21T20:32:38.913Z,57.81
2019-03-21T20:37:55.059Z,58.69
2019-03-21T20:43:05.831Z,59.26
2019-03-21T20:48:31.786Z,59.41
2019-03-21T20:53:39.954Z,59.12
2019-03-21T20:58:53.540Z,59.92
2019-03-21T21:04:05.144Z,59.65
2019-03-21T21:09:15.011Z,59.98
2019-03-21T21:14:26.470Z,60.09
2019-03-21T21:19:35.419Z,60.43
2019-03-21T21:24:50.784Z,60.56
2019-03-21T21:29:54.240Z,60.41
2019-03-21T21:35:01.912Z,60.86
2019-03-21T21:40:14.096Z,60.90
2019-03-21T21:45:22.924Z,61.39
2019-03-21T21:50:31.663Z,61.12
2019-03-21T21:55:41.078Z,61.17
2019-03-21T22:00:51.281Z,61.16
2019-03-21T22:06:00.315Z,61.81
2019-03-21T22:11:11.287Z,62.63
2019-03-21T22:16:18.889Z,61.77
2019-03-21T22:21:29.476Z,62.68
2019-03-21T22:26:37.699Z,62.86
2019-03-21T22:31:46.906Z,62.74
2019-03-21T22:36:55.727Z,63.19
2019-03-21T22:42:04.905Z,63.13
2019-03-21T22:47:16.530Z,62.47
2019-03-21T22:52:24.190Z,63.20
2019-03-21T22:57:39.178Z,63.11
2019-03-21T23:02:50.616Z,62.99
2019-03-21T23:07:57.956Z,64.91
2019-03-21T23:13:08.109Z,63.79
2019-03-21T23:18:16.716Z,63.44
2019-03-21T23:23:25.157Z,63.35
2019-03-21T23:28:35.821Z,63.84
2019-03-21T23:33:45.264Z,63.99
2019-03-21T23:38:54.643Z,63.80
2019-03-21T23:44:02.226Z,64.15
2019-03-21T23:49:19.810Z,63.89
2019-03-21T23:59:41.423Z,64.02
